sensor_id;sensor_type;location;lat;lon;timestamp;pressure;altitude;pressure_sealevel;temperature;humidity
31239;BME280;17871;31.584;74.450;2023-04-10T00:02:01;98499.63;;;23.78;63.52
31239;BME280;17871;31.584;74.450;2023-04-10T00:04:31;98495.19;;;23.81;63.36
31239;BME280;17871;31.584;74.450;2023-04-10T00:07:00;98502.22;;;23.78;63.29
31239;BME280;17871;31.584;74.450;2023-04-10T00:09:29;98492.06;;;23.72;63.33
31239;BME280;17871;31.584;74.450;2023-04-10T00:11:59;98504.97;;;23.75;63.00
31239;BME280;17871;31.584;74.450;2023-04-10T00:14:28;98498.00;;;23.76;62.78
31239;BME280;17871;31.584;74.450;2023-04-10T00:16:58;98493.81;;;23.72;62.43
31239;BME280;17871;31.584;74.450;2023-04-10T00:19:27;98502.63;;;23.69;63.20
31239;BME280;17871;31.584;74.450;2023-04-10T00:21:55;98507.41;;;23.60;63.48
31239;BME280;17871;31.584;74.450;2023-04-10T00:24:25;98516.22;;;23.57;63.92
31239;BME280;17871;31.584;74.450;2023-04-10T00:26:54;98511.00;;;23.57;63.74
31239;BME280;17871;31.584;74.450;2023-04-10T00:29:25;98512.69;;;23.58;64.08
31239;BME280;17871;31.584;74.450;2023-04-10T00:31:54;98524.06;;;23.57;64.19
31239;BME280;17871;31.584;74.450;2023-04-10T00:34:23;98524.19;;;23.54;64.57
31239;BME280;17871;31.584;74.450;2023-04-10T00:36:53;98519.22;;;23.48;64.63
31239;BME280;17871;31.584;74.450;2023-04-10T00:39:22;98522.81;;;23.46;65.94
31239;BME280;17871;31.584;74.450;2023-04-10T00:41:51;98524.78;;;23.41;65.57
31239;BME280;17871;31.584;74.450;2023-04-10T00:44:20;98530.00;;;23.39;65.57
31239;BME280;17871;31.584;74.450;2023-04-10T00:46:49;98527.38;;;23.41;65.28
31239;BME280;17871;31.584;74.450;2023-04-10T00:49:18;98530.16;;;23.36;65.49
31239;BME280;17871;31.584;74.450;2023-04-10T00:51:49;98532.88;;;23.33;65.17
31239;BME280;17871;31.584;74.450;2023-04-10T00:54:18;98539.81;;;23.34;65.50
31239;BME280;17871;31.584;74.450;2023-04-10T00:56:48;98546.66;;;23.37;65.59
31239;BME280;17871;31.584;74.450;2023-04-10T00:59:18;98545.78;;;23.36;66.30
31239;BME280;17871;31.584;74.450;2023-04-10T01:01:48;98546.81;;;23.32;66.47
31239;BME280;17871;31.584;74.450;2023-04-10T01:04:17;98551.88;;;23.37;67.25
31239;BME280;17871;31.584;74.450;2023-04-10T01:07:14;98548.72;;;23.50;66.61
31239;BME280;17871;31.584;74.450;2023-04-10T01:10:17;98553.94;;;23.50;66.99
31239;BME280;17871;31.584;74.450;2023-04-10T01:13:22;98551.09;;;23.55;66.85
31239;BME280;17871;31.584;74.450;2023-04-10T01:16:10;98549.44;;;23.54;66.57
31239;BME280;17871;31.584;74.450;2023-04-10T01:18:52;98554.28;;;23.61;66.26
31239;BME280;17871;31.584;74.450;2023-04-10T01:21:25;98559.50;;;23.61;65.07
31239;BME280;17871;31.584;74.450;2023-04-10T01:24:17;98565.66;;;23.60;65.79
31239;BME280;17871;31.584;74.450;2023-04-10T01:27:51;98572.19;;;23.70;65.36
31239;BME280;17871;31.584;74.450;2023-04-10T01:30:01;98579.94;;;23.72;65.53
31239;BME280;17871;31.584;74.450;2023-04-10T01:32:32;98575.44;;;23.75;66.18
31239;BME280;17871;31.584;74.450;2023-04-10T01:35:06;98580.13;;;23.88;65.15
31239;BME280;17871;31.584;74.450;2023-04-10T01:37:39;98585.22;;;23.91;65.50
31239;BME280;17871;31.584;74.450;2023-04-10T01:40:14;98582.41;;;23.95;66.71
31239;BME280;17871;31.584;74.450;2023-04-10T01:42:43;98579.25;;;24.07;66.74
31239;BME280;17871;31.584;74.450;2023-04-10T01:45:18;98582.97;;;24.02;67.01
31239;BME280;17871;31.584;74.450;2023-04-10T01:47:51;98581.28;;;24.01;67.76
31239;BME280;17871;31.584;74.450;2023-04-10T01:50:21;98590.50;;;24.09;67.79
31239;BME280;17871;31.584;74.450;2023-04-10T01:52:54;98599.78;;;24.16;68.13
31239;BME280;17871;31.584;74.450;2023-04-10T01:55:26;98599.41;;;24.24;68.04
31239;BME280;17871;31.584;74.450;2023-04-10T01:58:03;98604.13;;;24.36;67.07
31239;BME280;17871;31.584;74.450;2023-04-10T02:00:42;98603.41;;;24.51;67.07
31239;BME280;17871;31.584;74.450;2023-04-10T02:03:14;98605.88;;;24.54;66.62
31239;BME280;17871;31.584;74.450;2023-04-10T02:06:13;98601.94;;;24.64;66.98
31239;BME280;17871;31.584;74.450;2023-04-10T02:08:52;98601.22;;;24.61;65.36
31239;BME280;17871;31.584;74.450;2023-04-10T02:11:35;98612.81;;;24.74;64.26
31239;BME280;17871;31.584;74.450;2023-04-10T02:14:10;98610.03;;;24.77;63.98
31239;BME280;17871;31.584;74.450;2023-04-10T02:16:40;98616.28;;;24.74;63.58
31239;BME280;17871;31.584;74.450;2023-04-10T02:19:11;98617.56;;;24.85;62.95
31239;BME280;17871;31.584;74.450;2023-04-10T02:21:43;98615.81;;;24.85;63.32
31239;BME280;17871;31.584;74.450;2023-04-10T02:24:13;98621.44;;;24.95;63.32
31239;BME280;17871;31.584;74.450;2023-04-10T02:26:47;98624.47;;;25.04;63.16
31239;BME280;17871;31.584;74.450;2023-04-10T02:29:17;98625.94;;;25.10;62.38
31239;BME280;17871;31.584;74.450;2023-04-10T02:31:46;98629.91;;;25.18;62.33
31239;BME280;17871;31.584;74.450;2023-04-10T02:34:16;98632.91;;;25.28;61.85
31239;BME280;17871;31.584;74.450;2023-04-10T02:36:45;98629.78;;;25.39;60.99
31239;BME280;17871;31.584;74.450;2023-04-10T02:39:15;98634.34;;;25.52;61.22
31239;BME280;17871;31.584;74.450;2023-04-10T02:41:48;98643.59;;;25.59;61.19
31239;BME280;17871;31.584;74.450;2023-04-10T02:44:18;98651.78;;;25.70;60.74
31239;BME280;17871;31.584;74.450;2023-04-10T02:46:47;98646.22;;;25.76;59.90
31239;BME280;17871;31.584;74.450;2023-04-10T02:49:17;98648.63;;;25.81;59.50
31239;BME280;17871;31.584;74.450;2023-04-10T02:51:46;98642.00;;;25.91;59.25
31239;BME280;17871;31.584;74.450;2023-04-10T02:54:15;98651.91;;;26.02;58.87
31239;BME280;17871;31.584;74.450;2023-04-10T02:56:44;98647.91;;;26.12;58.36
31239;BME280;17871;31.584;74.450;2023-04-10T02:59:13;98644.91;;;26.19;57.83
31239;BME280;17871;31.584;74.450;2023-04-10T03:01:45;98649.50;;;26.31;58.14
31239;BME280;17871;31.584;74.450;2023-04-10T03:04:15;98653.44;;;26.40;57.50
31239;BME280;17871;31.584;74.450;2023-04-10T03:06:44;98653.13;;;26.46;57.34
31239;BME280;17871;31.584;74.450;2023-04-10T03:09:13;98655.00;;;26.60;56.60
31239;BME280;17871;31.584;74.450;2023-04-10T03:11:43;98661.34;;;26.71;55.99
31239;BME280;17871;31.584;74.450;2023-04-10T03:14:12;98659.63;;;26.88;55.11
31239;BME280;17871;31.584;74.450;2023-04-10T03:16:42;98659.91;;;26.99;53.32
31239;BME280;17871;31.584;74.450;2023-04-10T03:19:11;98667.00;;;27.12;52.00
31239;BME280;17871;31.584;74.450;2023-04-10T03:21:40;98666.41;;;27.23;50.98
31239;BME280;17871;31.584;74.450;2023-04-10T03:24:09;98665.72;;;27.35;49.90
31239;BME280;17871;31.584;74.450;2023-04-10T03:26:39;98669.56;;;27.45;48.54
31239;BME280;17871;31.584;74.450;2023-04-10T03:29:08;98680.38;;;27.55;47.25
31239;BME280;17871;31.584;74.450;2023-04-10T03:31:37;98676.97;;;27.68;47.29
31239;BME280;17871;31.584;74.450;2023-04-10T03:34:07;98682.09;;;27.86;47.65
31239;BME280;17871;31.584;74.450;2023-04-10T03:36:36;98683.16;;;27.97;47.52
31239;BME280;17871;31.584;74.450;2023-04-10T03:39:05;98677.97;;;28.11;47.39
31239;BME280;17871;31.584;74.450;2023-04-10T03:41:34;98690.47;;;28.22;47.38
31239;BME280;17871;31.584;74.450;2023-04-10T03:44:03;98675.53;;;28.37;47.12
31239;BME280;17871;31.584;74.450;2023-04-10T03:46:33;98691.78;;;28.43;47.56
31239;BME280;17871;31.584;74.450;2023-04-10T03:49:02;98692.66;;;28.58;47.39
31239;BME280;17871;31.584;74.450;2023-04-10T03:51:33;98691.84;;;28.71;47.76
31239;BME280;17871;31.584;74.450;2023-04-10T03:54:02;98698.78;;;28.87;47.84
31239;BME280;17871;31.584;74.450;2023-04-10T03:56:31;98699.50;;;29.03;48.50
31239;BME280;17871;31.584;74.450;2023-04-10T03:59:00;98697.06;;;29.14;48.29
31239;BME280;17871;31.584;74.450;2023-04-10T04:01:34;98696.66;;;29.20;48.64
31239;BME280;17871;31.584;74.450;2023-04-10T04:04:08;98700.69;;;29.40;49.11
31239;BME280;17871;31.584;74.450;2023-04-10T04:06:50;98697.66;;;29.46;47.66
31239;BME280;17871;31.584;74.450;2023-04-10T04:09:37;98707.84;;;29.64;45.85
31239;BME280;17871;31.584;74.450;2023-04-10T04:12:20;98712.13;;;29.79;40.63
31239;BME280;17871;31.584;74.450;2023-04-10T04:15:10;98706.63;;;29.82;35.69
31239;BME280;17871;31.584;74.450;2023-04-10T04:17:51;98712.19;;;30.05;35.19
31239;BME280;17871;31.584;74.450;2023-04-10T04:20:39;98719.31;;;30.29;35.41
31239;BME280;17871;31.584;74.450;2023-04-10T04:23:26;98722.22;;;30.52;33.87
31239;BME280;17871;31.584;74.450;2023-04-10T04:26:08;98721.03;;;30.68;33.87
31239;BME280;17871;31.584;74.450;2023-04-10T04:28:56;98726.53;;;30.78;32.98
31239;BME280;17871;31.584;74.450;2023-04-10T04:31:42;98722.63;;;30.96;31.50
31239;BME280;17871;31.584;74.450;2023-04-10T04:34:35;98725.94;;;31.23;31.73
31239;BME280;17871;31.584;74.450;2023-04-10T04:37:23;98734.03;;;31.33;32.10
31239;BME280;17871;31.584;74.450;2023-04-10T04:40:19;98736.84;;;31.55;32.61
31239;BME280;17871;31.584;74.450;2023-04-10T04:43:01;98725.78;;;31.50;32.93
31239;BME280;17871;31.584;74.450;2023-04-10T04:46:02;98728.91;;;31.68;31.55
31239;BME280;17871;31.584;74.450;2023-04-10T04:48:57;98730.50;;;31.81;31.32
31239;BME280;17871;31.584;74.450;2023-04-10T04:51:38;98730.94;;;31.75;31.39
31239;BME280;17871;31.584;74.450;2023-04-10T04:54:12;98731.00;;;31.86;31.22
31239;BME280;17871;31.584;74.450;2023-04-10T04:56:49;98724.81;;;31.99;31.29
31239;BME280;17871;31.584;74.450;2023-04-10T04:59:29;98721.50;;;32.08;32.51
31239;BME280;17871;31.584;74.450;2023-04-10T05:02:14;98733.19;;;32.16;32.45
31239;BME280;17871;31.584;74.450;2023-04-10T05:05:01;98733.34;;;32.26;30.90
31239;BME280;17871;31.584;74.450;2023-04-10T05:07:45;98734.81;;;32.41;32.18
31239;BME280;17871;31.584;74.450;2023-04-10T05:10:32;98739.63;;;32.36;31.49
31239;BME280;17871;31.584;74.450;2023-04-10T05:13:27;98735.34;;;32.57;32.08
31239;BME280;17871;31.584;74.450;2023-04-10T05:16:19;98742.50;;;32.44;31.26
31239;BME280;17871;31.584;74.450;2023-04-10T05:19:08;98752.34;;;32.66;30.67
31239;BME280;17871;31.584;74.450;2023-04-10T05:22:12;98743.69;;;32.86;31.34
31239;BME280;17871;31.584;74.450;2023-04-10T05:24:52;98745.97;;;32.90;30.58
31239;BME280;17871;31.584;74.450;2023-04-10T05:27:28;98758.72;;;33.08;31.39
31239;BME280;17871;31.584;74.450;2023-04-10T05:30:35;98742.84;;;32.97;30.09
31239;BME280;17871;31.584;74.450;2023-04-10T05:33:27;98752.28;;;33.12;30.24
31239;BME280;17871;31.584;74.450;2023-04-10T05:36:22;98745.53;;;33.19;30.96
31239;BME280;17871;31.584;74.450;2023-04-10T05:39:14;98740.53;;;33.48;31.65
31239;BME280;17871;31.584;74.450;2023-04-10T05:42:02;98739.59;;;33.37;31.76
31239;BME280;17871;31.584;74.450;2023-04-10T05:44:51;98740.88;;;33.54;30.93
31239;BME280;17871;31.584;74.450;2023-04-10T05:47:36;98742.31;;;33.58;30.74
31239;BME280;17871;31.584;74.450;2023-04-10T05:50:34;98743.53;;;33.65;30.86
31239;BME280;17871;31.584;74.450;2023-04-10T05:53:30;98746.13;;;33.76;31.57
31239;BME280;17871;31.584;74.450;2023-04-10T05:56:23;98740.31;;;33.82;30.15
31239;BME280;17871;31.584;74.450;2023-04-10T05:59:18;98738.75;;;33.91;30.13
31239;BME280;17871;31.584;74.450;2023-04-10T06:01:59;98736.16;;;34.01;29.96
31239;BME280;17871;31.584;74.450;2023-04-10T06:04:29;98740.34;;;34.14;29.98
31239;BME280;17871;31.584;74.450;2023-04-10T06:07:00;98730.47;;;33.73;30.08
31239;BME280;17871;31.584;74.450;2023-04-10T06:09:31;98731.16;;;33.86;30.16
31239;BME280;17871;31.584;74.450;2023-04-10T06:12:01;98724.25;;;33.95;29.69
31239;BME280;17871;31.584;74.450;2023-04-10T06:14:30;98722.75;;;34.13;30.39
31239;BME280;17871;31.584;74.450;2023-04-10T06:16:59;98726.63;;;34.30;30.56
31239;BME280;17871;31.584;74.450;2023-04-10T06:19:28;98713.09;;;34.12;28.50
31239;BME280;17871;31.584;74.450;2023-04-10T06:21:57;98715.69;;;34.23;28.39
31239;BME280;17871;31.584;74.450;2023-04-10T06:24:27;98716.28;;;34.27;28.92
31239;BME280;17871;31.584;74.450;2023-04-10T06:26:57;98714.38;;;34.38;29.01
31239;BME280;17871;31.584;74.450;2023-04-10T06:29:26;98707.31;;;34.49;28.78
31239;BME280;17871;31.584;74.450;2023-04-10T06:31:55;98708.91;;;34.51;28.45
31239;BME280;17871;31.584;74.450;2023-04-10T06:34:27;98706.75;;;34.66;29.68
31239;BME280;17871;31.584;74.450;2023-04-10T06:37:02;98707.13;;;34.61;28.71
31239;BME280;17871;31.584;74.450;2023-04-10T06:39:32;98700.06;;;34.71;29.00
31239;BME280;17871;31.584;74.450;2023-04-10T06:42:01;98700.84;;;34.62;27.09
31239;BME280;17871;31.584;74.450;2023-04-10T06:44:54;98697.66;;;34.68;28.16
31239;BME280;17871;31.584;74.450;2023-04-10T06:47:23;98699.63;;;34.66;27.89
31239;BME280;17871;31.584;74.450;2023-04-10T06:49:53;98693.78;;;34.72;27.27
31239;BME280;17871;31.584;74.450;2023-04-10T06:52:22;98693.69;;;34.83;27.36
31239;BME280;17871;31.584;74.450;2023-04-10T06:54:52;98697.50;;;34.90;26.96
31239;BME280;17871;31.584;74.450;2023-04-10T06:57:21;98696.38;;;34.93;27.37
31239;BME280;17871;31.584;74.450;2023-04-10T06:59:50;98695.66;;;34.91;26.46
31239;BME280;17871;31.584;74.450;2023-04-10T07:02:19;98693.59;;;34.95;26.78
31239;BME280;17871;31.584;74.450;2023-04-10T07:04:49;98690.31;;;35.12;27.82
31239;BME280;17871;31.584;74.450;2023-04-10T07:07:18;98687.56;;;35.23;27.65
31239;BME280;17871;31.584;74.450;2023-04-10T07:09:48;98683.91;;;35.24;27.02
31239;BME280;17871;31.584;74.450;2023-04-10T07:12:18;98683.22;;;35.22;27.30
31239;BME280;17871;31.584;74.450;2023-04-10T07:14:47;98679.44;;;35.34;27.03
31239;BME280;17871;31.584;74.450;2023-04-10T07:17:16;98677.50;;;35.26;26.18
31239;BME280;17871;31.584;74.450;2023-04-10T07:19:45;98673.03;;;35.36;26.35
31239;BME280;17871;31.584;74.450;2023-04-10T07:22:15;98672.03;;;35.47;26.00
31239;BME280;17871;31.584;74.450;2023-04-10T07:24:44;98668.28;;;35.50;26.06
31239;BME280;17871;31.584;74.450;2023-04-10T07:27:13;98665.34;;;35.33;24.61
31239;BME280;17871;31.584;74.450;2023-04-10T07:29:43;98662.69;;;35.43;24.88
31239;BME280;17871;31.584;74.450;2023-04-10T07:32:12;98657.09;;;35.56;25.77
31239;BME280;17871;31.584;74.450;2023-04-10T07:34:41;98653.19;;;35.50;24.50
31239;BME280;17871;31.584;74.450;2023-04-10T07:37:10;98655.41;;;35.55;26.07
31239;BME280;17871;31.584;74.450;2023-04-10T07:39:39;98645.25;;;35.60;26.37
31239;BME280;17871;31.584;74.450;2023-04-10T07:42:12;98647.06;;;35.59;25.90
31239;BME280;17871;31.584;74.450;2023-04-10T07:44:41;98641.44;;;35.81;25.72
31239;BME280;17871;31.584;74.450;2023-04-10T07:47:11;98649.28;;;35.64;26.07
31239;BME280;17871;31.584;74.450;2023-04-10T07:49:40;98644.50;;;35.67;25.95
31239;BME280;17871;31.584;74.450;2023-04-10T07:52:09;98640.88;;;35.78;25.46
31239;BME280;17871;31.584;74.450;2023-04-10T07:54:38;98627.72;;;35.86;25.20
31239;BME280;17871;31.584;74.450;2023-04-10T07:57:08;98636.97;;;35.72;25.25
31239;BME280;17871;31.584;74.450;2023-04-10T07:59:37;98630.53;;;35.65;25.13
31239;BME280;17871;31.584;74.450;2023-04-10T08:02:06;98632.91;;;35.59;24.96
31239;BME280;17871;31.584;74.450;2023-04-10T08:04:36;98628.56;;;35.67;24.72
31239;BME280;17871;31.584;74.450;2023-04-10T08:07:06;98629.84;;;35.73;24.26
31239;BME280;17871;31.584;74.450;2023-04-10T08:09:35;98633.59;;;35.89;25.61
31239;BME280;17871;31.584;74.450;2023-04-10T08:12:04;98624.31;;;35.93;25.40
31239;BME280;17871;31.584;74.450;2023-04-10T08:14:33;98617.75;;;35.98;25.59
31239;BME280;17871;31.584;74.450;2023-04-10T08:17:03;98621.81;;;36.11;25.95
31239;BME280;17871;31.584;74.450;2023-04-10T08:19:33;98615.50;;;36.03;25.09
31239;BME280;17871;31.584;74.450;2023-04-10T08:22:02;98601.66;;;36.09;26.15
31239;BME280;17871;31.584;74.450;2023-04-10T08:24:31;98613.66;;;36.03;24.40
31239;BME280;17871;31.584;74.450;2023-04-10T08:27:00;98603.59;;;35.97;23.57
31239;BME280;17871;31.584;74.450;2023-04-10T08:29:29;98611.72;;;35.96;22.62
31239;BME280;17871;31.584;74.450;2023-04-10T08:31:58;98594.34;;;36.01;22.33
31239;BME280;17871;31.584;74.450;2023-04-10T08:34:28;98591.56;;;36.03;23.17
31239;BME280;17871;31.584;74.450;2023-04-10T08:36:57;98596.59;;;36.06;22.38
31239;BME280;17871;31.584;74.450;2023-04-10T08:39:27;98586.22;;;35.93;22.17
31239;BME280;17871;31.584;74.450;2023-04-10T08:41:56;98587.88;;;36.13;22.93
31239;BME280;17871;31.584;74.450;2023-04-10T08:44:25;98578.38;;;36.11;23.63
31239;BME280;17871;31.584;74.450;2023-04-10T08:46:57;98570.53;;;36.19;23.48
31239;BME280;17871;31.584;74.450;2023-04-10T08:52:07;98570.81;;;36.16;21.46
31239;BME280;17871;31.584;74.450;2023-04-10T08:54:44;98565.19;;;36.19;22.28
31239;BME280;17871;31.584;74.450;2023-04-10T08:57:16;98567.16;;;36.17;22.93
31239;BME280;17871;31.584;74.450;2023-04-10T08:59:49;98570.03;;;36.33;23.95
31239;BME280;17871;31.584;74.450;2023-04-10T09:02:21;98566.84;;;36.20;23.54
31239;BME280;17871;31.584;74.450;2023-04-10T09:04:53;98557.66;;;36.05;23.93
31239;BME280;17871;31.584;74.450;2023-04-10T09:07:25;98557.59;;;36.24;23.71
31239;BME280;17871;31.584;74.450;2023-04-10T09:09:55;98550.06;;;36.10;23.15
31239;BME280;17871;31.584;74.450;2023-04-10T09:12:26;98546.19;;;35.95;23.06
31239;BME280;17871;31.584;74.450;2023-04-10T09:14:57;98547.28;;;36.11;23.38
31239;BME280;17871;31.584;74.450;2023-04-10T09:17:26;98547.28;;;36.11;24.23
31239;BME280;17871;31.584;74.450;2023-04-10T09:19:56;98533.94;;;36.21;23.73
31239;BME280;17871;31.584;74.450;2023-04-10T09:22:31;98537.56;;;36.20;23.99
31239;BME280;17871;31.584;74.450;2023-04-10T09:25:02;98535.88;;;36.28;24.13
31239;BME280;17871;31.584;74.450;2023-04-10T09:27:34;98532.84;;;36.04;23.71
31239;BME280;17871;31.584;74.450;2023-04-10T09:30:05;98533.34;;;36.27;23.42
31239;BME280;17871;31.584;74.450;2023-04-10T09:35:10;98524.88;;;36.04;23.34
31239;BME280;17871;31.584;74.450;2023-04-10T09:37:42;98529.50;;;36.02;23.70
31239;BME280;17871;31.584;74.450;2023-04-10T09:40:23;98509.19;;;36.11;24.28
31239;BME280;17871;31.584;74.450;2023-04-10T09:42:55;98513.38;;;36.04;23.63
31239;BME280;17871;31.584;74.450;2023-04-10T09:45:49;98507.75;;;36.16;24.55
31239;BME280;17871;31.584;74.450;2023-04-10T09:48:20;98505.78;;;36.18;24.63
31239;BME280;17871;31.584;74.450;2023-04-10T09:50:50;98497.41;;;36.13;24.12
31239;BME280;17871;31.584;74.450;2023-04-10T09:53:20;98498.59;;;35.91;23.17
31239;BME280;17871;31.584;74.450;2023-04-10T09:55:49;98494.06;;;36.02;22.85
31239;BME280;17871;31.584;74.450;2023-04-10T09:58:19;98491.69;;;36.08;24.67
31239;BME280;17871;31.584;74.450;2023-04-10T10:00:48;98494.16;;;35.82;24.42
31239;BME280;17871;31.584;74.450;2023-04-10T10:03:18;98487.53;;;35.96;24.61
31239;BME280;17871;31.584;74.450;2023-04-10T10:05:51;98477.25;;;36.01;24.36
31239;BME280;17871;31.584;74.450;2023-04-10T10:08:22;98479.53;;;35.96;24.74
31239;BME280;17871;31.584;74.450;2023-04-10T10:10:56;98478.47;;;35.79;24.25
31239;BME280;17871;31.584;74.450;2023-04-10T10:13:32;98478.72;;;35.86;23.92
31239;BME280;17871;31.584;74.450;2023-04-10T10:19:18;98467.25;;;35.85;22.85
31239;BME280;17871;31.584;74.450;2023-04-10T10:21:52;98472.03;;;35.82;24.15
31239;BME280;17871;31.584;74.450;2023-04-10T10:24:22;98473.19;;;35.60;22.52
31239;BME280;17871;31.584;74.450;2023-04-10T10:26:54;98471.09;;;35.64;22.05
31239;BME280;17871;31.584;74.450;2023-04-10T10:29:25;98462.81;;;35.67;22.50
31239;BME280;17871;31.584;74.450;2023-04-10T10:31:55;98459.72;;;35.71;22.21
31239;BME280;17871;31.584;74.450;2023-04-10T10:34:25;98464.75;;;35.74;22.04
31239;BME280;17871;31.584;74.450;2023-04-10T10:36:54;98461.13;;;35.75;22.79
31239;BME280;17871;31.584;74.450;2023-04-10T10:41:59;98451.88;;;35.79;23.60
31239;BME280;17871;31.584;74.450;2023-04-10T10:44:43;98450.88;;;35.80;23.34
31239;BME280;17871;31.584;74.450;2023-04-10T10:47:27;98445.66;;;35.88;22.97
31239;BME280;17871;31.584;74.450;2023-04-10T10:49:59;98445.28;;;35.74;23.57
31239;BME280;17871;31.584;74.450;2023-04-10T10:57:58;98435.69;;;35.63;23.50
31239;BME280;17871;31.584;74.450;2023-04-10T11:05:59;98443.50;;;35.65;23.92
31239;BME280;17871;31.584;74.450;2023-04-10T11:08:51;98444.94;;;35.59;23.94
31239;BME280;17871;31.584;74.450;2023-04-10T11:11:23;98443.38;;;35.47;22.53
31239;BME280;17871;31.584;74.450;2023-04-10T11:19:06;98433.47;;;35.59;24.18
31239;BME280;17871;31.584;74.450;2023-04-10T11:22:04;98435.41;;;35.66;23.84
31239;BME280;17871;31.584;74.450;2023-04-10T11:24:58;98431.78;;;35.48;24.15
31239;BME280;17871;31.584;74.450;2023-04-10T11:27:37;98436.22;;;35.57;24.43
31239;BME280;17871;31.584;74.450;2023-04-10T11:30:30;98429.25;;;35.56;24.64
31239;BME280;17871;31.584;74.450;2023-04-10T11:33:01;98428.44;;;35.46;24.91
31239;BME280;17871;31.584;74.450;2023-04-10T11:35:31;98434.34;;;35.40;25.09
31239;BME280;17871;31.584;74.450;2023-04-10T11:38:10;98434.31;;;35.50;25.70
31239;BME280;17871;31.584;74.450;2023-04-10T11:40:53;98426.75;;;35.45;25.37
31239;BME280;17871;31.584;74.450;2023-04-10T11:43:22;98419.66;;;35.36;25.25
31239;BME280;17871;31.584;74.450;2023-04-10T11:46:00;98426.88;;;35.43;24.54
31239;BME280;17871;31.584;74.450;2023-04-10T11:48:32;98427.63;;;35.36;25.18
31239;BME280;17871;31.584;74.450;2023-04-10T11:51:09;98417.28;;;35.33;24.96
31239;BME280;17871;31.584;74.450;2023-04-10T11:53:40;98425.66;;;35.38;25.42
31239;BME280;17871;31.584;74.450;2023-04-10T11:56:18;98425.66;;;35.38;25.74
31239;BME280;17871;31.584;74.450;2023-04-10T11:58:49;98422.34;;;35.26;25.88
31239;BME280;17871;31.584;74.450;2023-04-10T12:01:22;98426.38;;;35.21;26.33
31239;BME280;17871;31.584;74.450;2023-04-10T12:03:51;98424.00;;;35.18;26.64
31239;BME280;17871;31.584;74.450;2023-04-10T12:06:21;98418.28;;;35.22;27.07
31239;BME280;17871;31.584;74.450;2023-04-10T12:08:50;98421.63;;;35.15;26.87
31239;BME280;17871;31.584;74.450;2023-04-10T12:11:23;98424.44;;;35.13;27.29
31239;BME280;17871;31.584;74.450;2023-04-10T12:13:54;98420.50;;;35.08;27.12
31239;BME280;17871;31.584;74.450;2023-04-10T12:16:24;98415.75;;;35.02;27.31
31239;BME280;17871;31.584;74.450;2023-04-10T12:18:54;98415.63;;;34.94;26.48
31239;BME280;17871;31.584;74.450;2023-04-10T12:21:25;98415.75;;;34.92;27.63
31239;BME280;17871;31.584;74.450;2023-04-10T12:23:54;98414.09;;;34.81;27.60
31239;BME280;17871;31.584;74.450;2023-04-10T12:26:24;98411.31;;;34.83;27.82
31239;BME280;17871;31.584;74.450;2023-04-10T12:28:55;98411.16;;;34.75;27.51
31239;BME280;17871;31.584;74.450;2023-04-10T12:31:31;98415.06;;;34.61;27.74
31239;BME280;17871;31.584;74.450;2023-04-10T12:34:02;98415.06;;;34.61;27.71
31239;BME280;17871;31.584;74.450;2023-04-10T12:36:35;98421.47;;;34.49;27.19
31239;BME280;17871;31.584;74.450;2023-04-10T12:39:21;98419.25;;;34.54;28.32
31239;BME280;17871;31.584;74.450;2023-04-10T12:41:51;98421.59;;;34.38;28.29
31239;BME280;17871;31.584;74.450;2023-04-10T12:44:20;98428.44;;;34.31;28.52
31239;BME280;17871;31.584;74.450;2023-04-10T12:46:49;98427.03;;;34.27;28.41
31239;BME280;17871;31.584;74.450;2023-04-10T12:49:27;98428.13;;;34.15;29.21
31239;BME280;17871;31.584;74.450;2023-04-10T12:51:56;98432.25;;;34.08;29.02
31239;BME280;17871;31.584;74.450;2023-04-10T12:54:35;98432.78;;;34.02;29.56
31239;BME280;17871;31.584;74.450;2023-04-10T12:57:05;98438.00;;;33.82;29.72
31239;BME280;17871;31.584;74.450;2023-04-10T12:59:33;98436.34;;;33.81;30.00
31239;BME280;17871;31.584;74.450;2023-04-10T13:02:04;98436.47;;;33.80;30.18
31239;BME280;17871;31.584;74.450;2023-04-10T13:04:34;98436.88;;;33.75;30.54
31239;BME280;17871;31.584;74.450;2023-04-10T13:07:03;98445.19;;;33.61;30.40
31239;BME280;17871;31.584;74.450;2023-04-10T13:09:32;98447.59;;;33.53;31.39
31239;BME280;17871;31.584;74.450;2023-04-10T13:12:01;98443.69;;;33.48;31.63
31239;BME280;17871;31.584;74.450;2023-04-10T13:14:31;98453.00;;;33.42;32.10
31239;BME280;17871;31.584;74.450;2023-04-10T13:17:00;98454.47;;;33.35;31.90
31239;BME280;17871;31.584;74.450;2023-04-10T13:19:30;98450.09;;;33.24;32.34
31239;BME280;17871;31.584;74.450;2023-04-10T13:21:59;98453.38;;;33.17;32.83
31239;BME280;17871;31.584;74.450;2023-04-10T13:24:29;98451.47;;;33.08;32.83
31239;BME280;17871;31.584;74.450;2023-04-10T13:26:59;98457.97;;;33.04;33.46
31239;BME280;17871;31.584;74.450;2023-04-10T13:29:29;98446.47;;;32.94;34.25
31239;BME280;17871;31.584;74.450;2023-04-10T13:31:58;98460.38;;;32.86;33.93
31239;BME280;17871;31.584;74.450;2023-04-10T13:34:29;98459.31;;;32.77;34.66
31239;BME280;17871;31.584;74.450;2023-04-10T13:36:59;98461.41;;;32.63;34.51
31239;BME280;17871;31.584;74.450;2023-04-10T13:39:29;98460.09;;;32.57;35.00
31239;BME280;17871;31.584;74.450;2023-04-10T13:41:59;98459.72;;;32.51;34.50
31239;BME280;17871;31.584;74.450;2023-04-10T13:44:29;98460.81;;;32.48;35.17
31239;BME280;17871;31.584;74.450;2023-04-10T13:46:58;98468.16;;;32.45;35.22
31239;BME280;17871;31.584;74.450;2023-04-10T13:49:28;98457.38;;;32.36;35.52
31239;BME280;17871;31.584;74.450;2023-04-10T13:52:07;98463.25;;;32.29;35.29
31239;BME280;17871;31.584;74.450;2023-04-10T13:54:37;98464.47;;;32.25;36.03